createdAt,value
2022-08-30T00:00:03.201Z,18.00
2022-08-30T00:02:31.796Z,17.90
2022-08-30T00:05:01.758Z,17.90
2022-08-30T00:07:28.673Z,17.90
2022-08-30T00:09:56.650Z,17.90
2022-08-30T00:12:23.676Z,17.90
2022-08-30T00:14:50.654Z,17.90
2022-08-30T00:17:19.277Z,17.90
2022-08-30T00:19:47.747Z,17.90
2022-08-30T00:22:14.731Z,17.80
2022-08-30T00:24:41.612Z,17.80
2022-08-30T00:27:08.791Z,17.80
2022-08-30T00:29:35.696Z,17.80
2022-08-30T00:32:03.024Z,17.80
2022-08-30T00:34:30.030Z,17.70
2022-08-30T00:36:59.232Z,17.70
2022-08-30T00:39:26.556Z,17.70
2022-08-30T00:41:53.431Z,17.70
2022-08-30T00:44:20.467Z,17.70
2022-08-30T00:46:47.503Z,17.70
2022-08-30T00:49:14.982Z,17.70
2022-08-30T00:51:42.605Z,17.70
2022-08-30T00:54:11.954Z,17.70
2022-08-30T00:56:38.932Z,17.60
2022-08-30T00:59:07.893Z,17.60
2022-08-30T01:01:36.173Z,17.60
2022-08-30T01:04:05.598Z,17.60
2022-08-30T01:06:34.177Z,17.60
2022-08-30T01:09:03.077Z,17.60
2022-08-30T01:11:34.195Z,17.60
2022-08-30T01:14:02.328Z,17.60
2022-08-30T01:16:31.965Z,17.60
2022-08-30T01:18:59.773Z,17.60
2022-08-30T01:21:34.326Z,17.60
2022-08-30T01:24:04.717Z,17.60
2022-08-30T01:26:36.088Z,17.50
2022-08-30T01:29:06.966Z,17.50
2022-08-30T01:31:36.923Z,17.50
2022-08-30T01:34:05.365Z,17.50
2022-08-30T01:36:44.770Z,17.40
2022-08-30T01:39:15.912Z,17.40
2022-08-30T01:41:43.580Z,17.40
2022-08-30T01:44:12.560Z,17.40
2022-08-30T01:46:43.776Z,17.40
2022-08-30T01:49:13.845Z,17.40
2022-08-30T01:51:41.672Z,17.40
2022-08-30T01:54:09.342Z,17.40
2022-08-30T01:56:43.844Z,17.30
2022-08-30T01:59:11.263Z,17.30
2022-08-30T02:01:39.690Z,17.30
2022-08-30T02:04:08.561Z,17.30
2022-08-30T02:06:38.513Z,17.30
2022-08-30T02:09:05.823Z,17.20
2022-08-30T02:11:34.112Z,17.20
2022-08-30T02:14:02.414Z,17.20
2022-08-30T02:16:29.682Z,17.20
2022-08-30T02:18:57.475Z,17.20
2022-08-30T02:21:25.118Z,17.20
2022-08-30T02:23:52.439Z,17.20
2022-08-30T02:26:19.797Z,17.10
2022-08-30T02:28:49.991Z,17.10
2022-08-30T02:31:20.990Z,17.10
2022-08-30T02:33:49.095Z,17.10
2022-08-30T02:36:16.602Z,17.00
2022-08-30T02:38:43.648Z,17.00
2022-08-30T02:41:10.755Z,17.00
2022-08-30T02:43:37.635Z,17.00
2022-08-30T02:46:04.889Z,17.00
2022-08-30T02:48:34.221Z,17.00
2022-08-30T02:51:06.496Z,17.00
2022-08-30T02:53:36.878Z,16.90
2022-08-30T02:56:04.296Z,16.90
2022-08-30T02:58:31.532Z,16.90
2022-08-30T03:00:58.561Z,16.90
2022-08-30T03:03:25.902Z,16.90
2022-08-30T03:05:54.277Z,16.90
2022-08-30T03:08:21.634Z,16.90
2022-08-30T03:10:49.056Z,16.90
2022-08-30T03:13:16.149Z,16.90
2022-08-30T03:15:43.175Z,16.90
2022-08-30T03:18:11.516Z,16.90
2022-08-30T03:20:38.696Z,16.90
2022-08-30T03:23:07.116Z,16.90
2022-08-30T03:25:34.248Z,16.80
2022-08-30T03:28:01.630Z,16.80
2022-08-30T03:30:29.079Z,16.80
2022-08-30T03:32:55.990Z,16.80
2022-08-30T03:35:22.964Z,16.80
2022-08-30T03:37:49.860Z,16.80
2022-08-30T03:40:24.701Z,16.70
2022-08-30T03:42:53.071Z,16.80
2022-08-30T03:45:20.700Z,16.80
2022-08-30T03:47:47.703Z,16.80
2022-08-30T03:50:16.036Z,16.80
2022-08-30T03:52:43.331Z,16.80
2022-08-30T03:55:10.294Z,16.80
2022-08-30T03:57:40.496Z,16.70
2022-08-30T04:00:11.542Z,16.80
2022-08-30T04:02:39.108Z,16.80
2022-08-30T04:05:07.753Z,16.80
2022-08-30T04:07:34.714Z,16.80
2022-08-30T04:10:02.611Z,16.80
2022-08-30T04:12:29.709Z,16.80
2022-08-30T04:14:57.931Z,16.80
2022-08-30T04:17:24.967Z,16.80
2022-08-30T04:19:52.270Z,16.80
2022-08-30T04:22:19.337Z,16.80
2022-08-30T04:24:46.435Z,16.80
2022-08-30T04:27:13.314Z,16.70
2022-08-30T04:29:40.548Z,16.70
2022-08-30T04:32:08.851Z,16.70
2022-08-30T04:34:35.763Z,16.60
2022-08-30T04:37:02.828Z,16.60
2022-08-30T04:39:31.315Z,16.50
2022-08-30T04:41:58.711Z,16.50
2022-08-30T04:44:27.434Z,16.50
2022-08-30T04:46:54.499Z,16.50
2022-08-30T04:49:23.092Z,16.40
2022-08-30T04:51:50.268Z,16.40
2022-08-30T04:54:17.785Z,16.40
2022-08-30T04:56:44.628Z,16.40
2022-08-30T04:59:11.491Z,16.40
2022-08-30T05:01:45.568Z,16.40
2022-08-30T05:04:13.329Z,16.30
2022-08-30T05:06:42.487Z,16.30
2022-08-30T05:09:09.649Z,16.30
2022-08-30T05:11:37.744Z,16.30
2022-08-30T05:14:05.744Z,16.30
2022-08-30T05:16:32.625Z,16.30
2022-08-30T05:18:59.826Z,16.30
2022-08-30T05:21:28.044Z,16.30
2022-08-30T05:24:00.978Z,16.30
2022-08-30T05:26:31.167Z,16.30
2022-08-30T05:28:58.195Z,16.30
2022-08-30T05:31:28.215Z,16.30
2022-08-30T05:34:05.447Z,16.30
2022-08-30T05:36:35.261Z,16.30
2022-08-30T05:39:05.717Z,16.30
2022-08-30T05:41:33.255Z,16.30
2022-08-30T05:44:02.433Z,16.30
2022-08-30T05:49:02.272Z,16.20
2022-08-30T05:51:31.779Z,16.30
2022-08-30T05:53:59.687Z,16.30
2022-08-30T05:56:35.068Z,16.40
2022-08-30T05:59:07.289Z,16.40
2022-08-30T06:01:38.159Z,16.40
2022-08-30T06:04:08.113Z,16.40
2022-08-30T06:06:38.422Z,16.40
2022-08-30T06:09:07.420Z,16.40
2022-08-30T06:11:36.482Z,16.50
2022-08-30T06:14:04.147Z,16.50
2022-08-30T06:16:31.419Z,16.60
2022-08-30T06:19:00.116Z,16.60
2022-08-30T06:21:29.067Z,16.70
2022-08-30T06:23:57.428Z,16.80
2022-08-30T06:26:24.432Z,16.80
2022-08-30T06:28:53.208Z,16.90
2022-08-30T06:31:21.926Z,16.90
2022-08-30T06:33:49.493Z,17.00
2022-08-30T06:36:19.239Z,17.10
2022-08-30T06:38:46.968Z,17.10
2022-08-30T06:41:18.988Z,17.10
2022-08-30T06:43:49.108Z,17.20
2022-08-30T06:46:23.031Z,17.30
2022-08-30T06:48:50.319Z,17.40
2022-08-30T06:51:20.721Z,17.50
2022-08-30T06:53:50.924Z,17.70
2022-08-30T06:56:18.980Z,17.80
2022-08-30T06:58:47.192Z,18.00
2022-08-30T07:01:26.651Z,18.10
2022-08-30T07:04:01.969Z,18.30
2022-08-30T07:06:29.831Z,18.40
2022-08-30T07:08:57.660Z,18.70
2022-08-30T07:11:29.726Z,18.90
2022-08-30T07:13:57.031Z,19.00
2022-08-30T07:16:24.294Z,19.10
2022-08-30T07:18:51.229Z,19.40
2022-08-30T07:21:23.160Z,19.50
2022-08-30T07:23:53.434Z,19.60
2022-08-30T07:26:23.678Z,19.70
2022-08-30T07:28:55.716Z,19.90
2022-08-30T07:31:37.666Z,20.00
2022-08-30T07:34:07.051Z,20.10
2022-08-30T07:36:44.615Z,20.20
2022-08-30T07:39:11.984Z,20.30
2022-08-30T07:41:39.184Z,20.40
2022-08-30T07:44:07.766Z,20.40
2022-08-30T07:46:35.430Z,20.50
2022-08-30T07:49:04.045Z,20.60
2022-08-30T07:51:32.433Z,20.60
2022-08-30T07:54:00.947Z,20.80
2022-08-30T07:56:28.083Z,20.90
2022-08-30T07:58:55.219Z,21.00
2022-08-30T08:01:23.578Z,21.20
2022-08-30T08:03:51.142Z,21.40
2022-08-30T08:06:20.366Z,21.40
2022-08-30T08:08:47.353Z,21.50
2022-08-30T08:11:19.688Z,21.60
2022-08-30T08:13:53.578Z,21.70
2022-08-30T08:16:23.549Z,21.80
2022-08-30T08:18:51.055Z,21.90
2022-08-30T08:21:18.050Z,22.00
2022-08-30T08:23:45.526Z,22.10
2022-08-30T08:26:12.665Z,22.10
2022-08-30T08:28:41.286Z,22.10
2022-08-30T08:31:14.791Z,22.10
2022-08-30T08:33:41.723Z,22.30
2022-08-30T08:36:11.784Z,22.40
2022-08-30T08:38:38.914Z,22.40
2022-08-30T08:41:12.926Z,22.50
2022-08-30T08:43:41.507Z,22.60
2022-08-30T08:46:16.527Z,22.60
2022-08-30T08:49:00.084Z,22.70
2022-08-30T08:51:49.362Z,22.90
2022-08-30T08:54:22.724Z,23.00
2022-08-30T08:56:55.563Z,23.10
2022-08-30T08:59:24.016Z,23.30
2022-08-30T09:01:51.459Z,23.40
2022-08-30T09:04:25.635Z,23.50
2022-08-30T09:06:57.477Z,23.60
2022-08-30T09:09:29.930Z,23.70
2022-08-30T09:11:57.228Z,23.70
2022-08-30T09:17:19.729Z,23.60
2022-08-30T09:19:58.903Z,23.70
2022-08-30T09:22:31.890Z,23.80
2022-08-30T09:25:04.702Z,23.90
2022-08-30T09:27:34.017Z,23.90
2022-08-30T09:30:07.647Z,23.90
2022-08-30T09:32:43.709Z,23.80
2022-08-30T09:35:13.337Z,23.80
2022-08-30T09:37:47.788Z,23.80
2022-08-30T09:40:22.262Z,23.90
2022-08-30T09:43:09.410Z,23.90
2022-08-30T09:45:44.648Z,23.90
2022-08-30T09:48:27.608Z,24.00
2022-08-30T09:51:08.344Z,24.10
2022-08-30T09:53:42.506Z,24.20
2022-08-30T09:56:20.906Z,24.30
2022-08-30T09:59:02.623Z,24.40
2022-08-30T10:01:35.815Z,24.40
2022-08-30T10:04:14.838Z,24.30
2022-08-30T10:06:49.532Z,24.20
2022-08-30T10:09:24.327Z,24.20
2022-08-30T10:12:00.311Z,24.10
2022-08-30T10:14:46.580Z,24.10
2022-08-30T10:17:27.995Z,24.20
2022-08-30T10:20:06.738Z,24.10
2022-08-30T10:22:37.817Z,24.20
2022-08-30T10:25:16.124Z,24.10
2022-08-30T10:27:50.197Z,24.10
2022-08-30T10:30:18.690Z,24.10
2022-08-30T10:32:52.976Z,24.20
2022-08-30T10:35:22.491Z,24.10
2022-08-30T10:37:53.898Z,24.20
2022-08-30T10:40:51.148Z,24.20
2022-08-30T10:43:26.341Z,24.20
2022-08-30T10:45:58.580Z,24.30
2022-08-30T10:48:31.154Z,24.30
2022-08-30T10:51:04.958Z,24.30
2022-08-30T10:53:39.393Z,24.40
2022-08-30T10:56:17.050Z,24.40
2022-08-30T10:58:44.202Z,24.40
2022-08-30T11:01:46.319Z,24.40
2022-08-30T11:04:33.188Z,24.50
2022-08-30T11:07:11.457Z,24.50
2022-08-30T11:09:49.908Z,24.50
2022-08-30T11:12:27.662Z,24.60
2022-08-30T11:14:57.538Z,24.60
2022-08-30T11:17:32.143Z,24.60
2022-08-30T11:20:02.587Z,24.50
2022-08-30T11:22:38.263Z,24.60
2022-08-30T11:25:12.592Z,24.70
2022-08-30T11:27:42.424Z,24.80
2022-08-30T11:30:46.615Z,24.90
2022-08-30T11:33:39.982Z,24.90
2022-08-30T11:36:09.464Z,24.90
2022-08-30T11:39:01.130Z,24.90
2022-08-30T11:41:42.087Z,24.80
2022-08-30T11:44:28.854Z,24.80
2022-08-30T11:46:56.652Z,24.70
2022-08-30T11:49:39.543Z,24.80
2022-08-30T11:52:27.489Z,24.80
2022-08-30T11:55:31.383Z,24.90
2022-08-30T11:58:11.645Z,24.90
2022-08-30T12:00:41.007Z,24.90
2022-08-30T12:03:28.579Z,24.90
2022-08-30T12:05:59.950Z,24.90
2022-08-30T12:08:48.183Z,24.90
2022-08-30T12:12:02.989Z,25.00
2022-08-30T12:14:51.549Z,25.10
2022-08-30T12:17:48.443Z,25.20
2022-08-30T12:20:28.139Z,25.20
2022-08-30T12:22:56.000Z,25.30
2022-08-30T12:25:31.288Z,25.30
2022-08-30T12:28:15.110Z,25.30
2022-08-30T12:30:42.766Z,25.40
2022-08-30T12:33:24.016Z,25.40
2022-08-30T12:35:59.234Z,25.30
2022-08-30T12:38:29.894Z,25.30
2022-08-30T12:41:02.846Z,25.40
2022-08-30T12:43:39.071Z,25.40
2022-08-30T12:46:20.121Z,25.40
2022-08-30T12:48:48.057Z,25.40
2022-08-30T12:51:40.985Z,25.50
2022-08-30T12:54:19.679Z,25.50
2022-08-30T12:57:10.022Z,25.50
2022-08-30T12:59:59.466Z,25.50
2022-08-30T13:02:52.653Z,25.60
2022-08-30T13:05:48.069Z,25.50
2022-08-30T13:08:21.260Z,25.40
2022-08-30T13:10:58.430Z,25.40
2022-08-30T13:13:45.411Z,25.40
2022-08-30T13:16:44.610Z,25.50
2022-08-30T13:19:44.561Z,25.60
2022-08-30T13:22:29.002Z,25.70
2022-08-30T13:24:56.769Z,25.70
2022-08-30T13:27:31.164Z,25.70
2022-08-30T13:30:13.264Z,25.80
2022-08-30T13:32:42.979Z,25.90
2022-08-30T13:35:11.409Z,25.90
2022-08-30T13:37:49.554Z,25.90
2022-08-30T13:40:22.337Z,25.90
2022-08-30T13:42:50.217Z,25.90
2022-08-30T13:48:07.491Z,26.10
2022-08-30T13:50:34.379Z,26.10
2022-08-30T13:53:04.611Z,26.20
2022-08-30T13:55:34.612Z,26.20
2022-08-30T13:58:02.291Z,26.40
2022-08-30T14:00:34.862Z,26.60
2022-08-30T14:03:04.773Z,26.70
2022-08-30T14:05:48.760Z,26.80
2022-08-30T14:11:11.212Z,26.90
2022-08-30T14:13:38.952Z,26.90
2022-08-30T14:16:29.620Z,26.90
2022-08-30T14:19:00.364Z,26.90
2022-08-30T14:21:28.368Z,27.00
2022-08-30T14:23:57.719Z,27.10
2022-08-30T14:26:32.821Z,27.00
2022-08-30T14:29:00.705Z,27.00
2022-08-30T14:31:30.189Z,27.00
2022-08-30T14:33:59.917Z,26.90
2022-08-30T14:36:27.386Z,26.90
2022-08-30T14:38:54.275Z,26.80
2022-08-30T14:41:22.891Z,26.70
2022-08-30T14:43:51.590Z,26.70
2022-08-30T14:46:18.736Z,26.90
2022-08-30T14:48:47.083Z,26.90
2022-08-30T14:53:57.504Z,27.00
2022-08-30T14:56:24.912Z,27.00
2022-08-30T14:58:53.848Z,26.90
2022-08-30T15:01:22.700Z,26.80
2022-08-30T15:03:55.594Z,26.70
2022-08-30T15:06:22.817Z,26.60
2022-08-30T15:08:54.232Z,26.50
2022-08-30T15:11:22.868Z,26.40
2022-08-30T15:13:49.836Z,26.40
2022-08-30T15:16:25.541Z,26.20
2022-08-30T15:18:54.809Z,26.20
2022-08-30T15:21:25.767Z,26.10
2022-08-30T15:23:53.738Z,25.90
2022-08-30T15:26:20.894Z,25.90
2022-08-30T15:28:48.206Z,25.90
2022-08-30T15:31:16.096Z,25.90
2022-08-30T15:33:44.241Z,25.90
2022-08-30T15:36:13.482Z,25.90
2022-08-30T15:38:49.560Z,25.90
2022-08-30T15:41:16.401Z,25.90
2022-08-30T15:43:43.282Z,25.80
2022-08-30T15:46:24.023Z,25.80
2022-08-30T15:49:00.235Z,25.70
2022-08-30T15:51:30.798Z,25.60
2022-08-30T15:54:08.679Z,25.50
2022-08-30T15:56:35.590Z,25.40
2022-08-30T15:59:02.583Z,25.30
2022-08-30T16:01:30.160Z,25.30
2022-08-30T16:03:57.848Z,25.30
2022-08-30T16:06:28.074Z,25.20
2022-08-30T16:08:57.268Z,25.20
2022-08-30T16:11:25.266Z,25.10
2022-08-30T16:13:53.425Z,25.00
2022-08-30T16:16:21.283Z,25.00
2022-08-30T16:18:54.276Z,25.00
2022-08-30T16:21:25.287Z,25.00
2022-08-30T16:23:54.869Z,25.00
2022-08-30T16:26:23.602Z,25.00
2022-08-30T16:28:51.896Z,24.90
2022-08-30T16:31:20.207Z,24.90
2022-08-30T16:33:47.665Z,24.90
2022-08-30T16:36:28.100Z,24.90
2022-08-30T16:38:58.407Z,24.80
2022-08-30T16:41:27.580Z,24.80
2022-08-30T16:43:55.451Z,24.80
2022-08-30T16:46:27.185Z,24.80
2022-08-30T16:48:57.234Z,24.70
2022-08-30T16:51:27.954Z,24.70
2022-08-30T16:53:56.086Z,24.60
2022-08-30T16:56:26.595Z,24.50
2022-08-30T16:59:01.255Z,24.40
2022-08-30T17:01:30.040Z,24.30
2022-08-30T17:03:57.733Z,24.20
2022-08-30T17:06:25.220Z,24.20
2022-08-30T17:08:55.858Z,24.10
2022-08-30T17:11:33.227Z,24.10
2022-08-30T17:14:01.793Z,24.10
2022-08-30T17:16:31.835Z,24.00
2022-08-30T17:19:03.027Z,23.90
2022-08-30T17:21:32.511Z,23.90
2022-08-30T17:24:02.274Z,23.80
2022-08-30T17:26:31.194Z,23.70
2022-08-30T17:29:03.267Z,23.60
2022-08-30T17:31:31.245Z,23.60
2022-08-30T17:34:05.869Z,23.50
2022-08-30T17:36:36.825Z,23.40
2022-08-30T17:39:11.369Z,23.40
2022-08-30T17:41:45.247Z,23.30
2022-08-30T17:44:20.210Z,23.30
2022-08-30T17:46:47.627Z,23.20
2022-08-30T17:49:15.090Z,23.10
2022-08-30T17:51:45.693Z,23.10
2022-08-30T17:54:14.933Z,23.10
2022-08-30T17:56:42.689Z,23.00
2022-08-30T17:59:11.704Z,22.90
2022-08-30T18:01:43.059Z,22.90
2022-08-30T18:04:11.032Z,22.90
2022-08-30T18:06:38.581Z,22.90
2022-08-30T18:09:08.521Z,22.80
2022-08-30T18:11:41.642Z,22.80
2022-08-30T18:14:10.985Z,22.80
2022-08-30T18:16:49.675Z,22.70
2022-08-30T18:19:21.748Z,22.60
2022-08-30T18:21:51.203Z,22.60
2022-08-30T18:24:20.482Z,22.50
2022-08-30T18:26:47.647Z,22.50
2022-08-30T18:29:15.171Z,22.40
2022-08-30T18:31:57.635Z,22.40
2022-08-30T18:34:24.496Z,22.30
2022-08-30T18:36:51.435Z,22.30
2022-08-30T18:39:19.027Z,22.30
2022-08-30T18:41:47.510Z,22.20
2022-08-30T18:44:27.909Z,22.20
2022-08-30T18:47:00.196Z,22.10
2022-08-30T18:49:27.873Z,22.00
2022-08-30T18:51:54.822Z,22.00
2022-08-30T18:54:22.677Z,21.90
2022-08-30T18:56:49.912Z,21.90
2022-08-30T18:59:18.740Z,21.80
2022-08-30T19:01:49.188Z,21.80
2022-08-30T19:04:29.730Z,21.80
2022-08-30T19:07:03.709Z,21.70
2022-08-30T19:09:30.749Z,21.60
2022-08-30T19:11:59.572Z,21.60
2022-08-30T19:14:28.032Z,21.60
2022-08-30T19:16:56.621Z,21.50
2022-08-30T19:19:25.070Z,21.50
2022-08-30T19:21:52.544Z,21.40
2022-08-30T19:24:33.454Z,21.40
2022-08-30T19:27:01.618Z,21.40
2022-08-30T19:29:28.678Z,21.40
2022-08-30T19:31:56.039Z,21.30
2022-08-30T19:34:24.562Z,21.30
2022-08-30T19:36:52.439Z,21.20
2022-08-30T19:39:19.747Z,21.20
2022-08-30T19:41:47.082Z,21.20
2022-08-30T19:44:14.109Z,21.10
2022-08-30T19:46:41.167Z,21.10
2022-08-30T19:49:10.364Z,21.00
2022-08-30T19:51:39.609Z,20.90
2022-08-30T19:54:14.433Z,21.00
2022-08-30T19:56:41.484Z,20.90
2022-08-30T19:59:08.365Z,20.90
2022-08-30T20:01:37.948Z,20.90
2022-08-30T20:04:04.956Z,20.80
2022-08-30T20:06:32.824Z,20.80
2022-08-30T20:09:02.313Z,20.80
2022-08-30T20:11:40.113Z,20.70
2022-08-30T20:14:09.832Z,20.70
2022-08-30T20:16:41.255Z,20.60
2022-08-30T20:19:10.632Z,20.60
2022-08-30T20:21:38.740Z,20.60
2022-08-30T20:24:09.674Z,20.60
2022-08-30T20:26:37.302Z,20.50
2022-08-30T20:29:04.476Z,20.50
2022-08-30T20:31:31.837Z,20.40
2022-08-30T20:33:58.871Z,20.40
2022-08-30T20:36:26.266Z,20.40
2022-08-30T20:38:53.468Z,20.30
2022-08-30T20:41:23.270Z,20.30
2022-08-30T20:43:50.244Z,20.30
2022-08-30T20:46:20.822Z,20.30
2022-08-30T20:48:47.958Z,20.20
2022-08-30T20:51:17.368Z,20.20
2022-08-30T20:53:45.394Z,20.10
2022-08-30T20:56:13.230Z,20.10
2022-08-30T20:58:41.818Z,20.10
2022-08-30T21:01:10.507Z,20.00
2022-08-30T21:03:37.904Z,20.00
2022-08-30T21:06:05.650Z,20.00
2022-08-30T21:08:32.541Z,19.90
2022-08-30T21:11:00.070Z,19.90
2022-08-30T21:13:29.477Z,19.90
2022-08-30T21:16:03.283Z,19.90
2022-08-30T21:18:33.001Z,19.90
2022-08-30T21:21:00.602Z,19.80
2022-08-30T21:23:29.718Z,19.80
2022-08-30T21:26:03.069Z,19.70
2022-08-30T21:28:29.934Z,19.70
2022-08-30T21:31:05.693Z,19.70
2022-08-30T21:33:32.675Z,19.70
2022-08-30T21:36:20.505Z,19.60
2022-08-30T21:38:52.672Z,19.60
2022-08-30T21:41:21.971Z,19.60
2022-08-30T21:43:49.100Z,19.50
2022-08-30T21:46:17.985Z,19.60
2022-08-30T21:48:46.752Z,19.50
2022-08-30T21:51:14.079Z,19.50
2022-08-30T21:53:41.264Z,19.50
2022-08-30T21:56:09.049Z,19.50
2022-08-30T21:58:40.292Z,19.40
2022-08-30T22:01:09.133Z,19.40
2022-08-30T22:03:37.671Z,19.40
2022-08-30T22:06:07.909Z,19.30
2022-08-30T22:08:34.983Z,19.30
2022-08-30T22:11:05.378Z,19.20
2022-08-30T22:13:32.639Z,19.20
2022-08-30T22:15:59.508Z,19.20
2022-08-30T22:18:26.364Z,19.20
2022-08-30T22:20:54.659Z,19.20
2022-08-30T22:23:23.746Z,19.10
2022-08-30T22:25:51.627Z,19.10
2022-08-30T22:28:20.755Z,19.10
2022-08-30T22:30:47.940Z,19.00
2022-08-30T22:33:15.757Z,19.00
2022-08-30T22:35:43.475Z,19.00
2022-08-30T22:38:11.965Z,18.90
2022-08-30T22:40:45.375Z,18.90
2022-08-30T22:43:12.406Z,18.90
2022-08-30T22:45:39.896Z,18.90
2022-08-30T22:48:07.269Z,18.90
2022-08-30T22:50:35.255Z,18.80
2022-08-30T22:53:02.288Z,18.80
2022-08-30T22:55:30.534Z,18.70
2022-08-30T22:57:57.671Z,18.70
2022-08-30T23:00:24.947Z,18.70
2022-08-30T23:02:53.832Z,18.60
2022-08-30T23:05:22.536Z,18.70
2022-08-30T23:07:50.827Z,18.60
2022-08-30T23:10:18.315Z,18.60
2022-08-30T23:12:46.814Z,18.60
2022-08-30T23:15:16.150Z,18.60
2022-08-30T23:17:43.098Z,18.60
2022-08-30T23:20:10.843Z,18.50
2022-08-30T23:22:37.919Z,18.50
2022-08-30T23:25:25.323Z,18.40
2022-08-30T23:28:20.737Z,18.40
2022-08-30T23:31:16.379Z,18.40
2022-08-30T23:34:01.929Z,18.40
2022-08-30T23:37:00.095Z,18.30
2022-08-30T23:39:46.594Z,18.30
2022-08-30T23:42:32.308Z,18.30
2022-08-30T23:45:19.164Z,18.20
2022-08-30T23:48:08.377Z,18.20
2022-08-30T23:50:53.846Z,18.20
2022-08-30T23:53:39.126Z,18.20
2022-08-30T23:56:30.449Z,18.10
2022-08-30T23:59:16.427Z,18.10
